Time;durP1;ratioP1;P1;durP2;ratioP2;P2;SDS_P1;SDS_P2;PMS_P1;PMS_P2;Temp;Humidity;BMP_temperature;BMP_pressure;BME280_temperature;BME280_humidity;BME280_pressure;Samples;Min_cycle;Max_cycle;Signal;HPM_P1;HPM_P2
2023/05/03 02:36:04;;;;;;;1999.90;999.90;;;;;;;;;;6201733;22;20214;-71
2023/05/03 02:38:49;;;;;;;1999.90;999.90;;;;;;;;;;6213172;23;20194;-68
2023/05/03 02:41:33;;;;;;;1999.90;999.90;;;;;;;;;;6214104;23;20170;-69
2023/05/03 02:44:18;;;;;;;1999.90;999.90;;;;;;;;;;6213854;23;20170;-69
2023/05/03 02:47:03;;;;;;;1999.90;999.90;;;;;;;;;;6213603;23;20672;-71
2023/05/03 02:49:48;;;;;;;1999.90;999.90;;;;;;;;;;6212771;23;20166;-70
2023/05/03 02:52:35;;;;;;;1999.90;999.90;;;;;;;;;;6214200;23;20290;-70
2023/05/03 02:55:20;;;;;;;1999.90;999.90;;;;;;;;;;6214092;23;20269;-70
2023/05/03 02:58:06;;;;;;;1999.90;999.90;;;;;;;;;;6213958;23;20180;-68
2023/05/03 03:00:51;;;;;;;1999.90;999.90;;;;;;;;;;6214052;23;20166;-70
2023/05/03 03:03:36;;;;;;;1999.90;999.90;;;;;;;;;;6213708;23;20626;-71
2023/05/03 03:06:21;;;;;;;1999.90;999.90;;;;;;;;;;6212563;23;20443;-70
2023/05/03 03:09:07;;;;;;;1999.90;999.90;;;;;;;;;;6212549;23;20618;-70
2023/05/03 03:11:53;;;;;;;1999.90;999.90;;;;;;;;;;6213609;23;20165;-70
2023/05/03 03:14:38;;;;;;;1999.90;999.90;;;;;;;;;;6213934;23;20205;-70
2023/05/03 03:17:23;;;;;;;1999.90;999.90;;;;;;;;;;6214178;23;20166;-70
2023/05/03 03:20:11;;;;;;;1999.90;999.90;;;;;;;;;;6212273;23;20879;-70
2023/05/03 03:22:56;;;;;;;1999.90;999.90;;;;;;;;;;6213605;23;20175;-70
2023/05/03 03:25:42;;;;;;;1999.90;999.90;;;;;;;;;;6214027;23;20311;-70
2023/05/03 03:28:27;;;;;;;1999.90;999.90;;;;;;;;;;6213694;23;20528;-68
2023/05/03 03:31:12;;;;;;;1999.90;999.90;;;;;;;;;;6213957;23;20166;-71
2023/05/03 03:33:57;;;;;;;1999.90;999.90;;;;;;;;;;6213978;23;20221;-70
2023/05/03 03:36:41;;;;;;;1999.90;999.90;;;;;;;;;;6214225;23;20209;-71
2023/05/03 03:39:26;;;;;;;1999.90;999.90;;;;;;;;;;6213341;23;20240;-70
2023/05/03 03:42:13;;;;;;;1999.90;999.90;;;;;;;;;;6214011;23;20216;-71
2023/05/03 03:44:58;;;;;;;1999.90;999.90;;;;;;;;;;6213983;23;20205;-70
2023/05/03 03:47:43;;;;;;;1999.90;999.90;;;;;;;;;;6214031;23;20508;-66
2023/05/03 03:50:28;;;;;;;1999.90;999.90;;;;;;;;;;6214066;23;20209;-67
2023/05/03 03:53:13;;;;;;;1999.90;999.90;;;;;;;;;;6213825;23;20374;-67
2023/05/03 03:55:58;;;;;;;1999.90;999.90;;;;;;;;;;6214092;23;20728;-66
2023/05/03 03:58:45;;;;;;;1999.90;999.90;;;;;;;;;;6213542;23;20681;-66
2023/05/03 04:01:30;;;;;;;1999.90;999.90;;;;;;;;;;6213970;23;20264;-70
2023/05/03 04:04:15;;;;;;;1999.90;999.90;;;;;;;;;;6213901;23;20606;-70
2023/05/03 04:07:00;;;;;;;1999.90;999.90;;;;;;;;;;6213590;23;20375;-71
2023/05/03 04:09:44;;;;;;;1999.90;999.90;;;;;;;;;;6212963;23;20225;-70
2023/05/03 04:12:30;;;;;;;1999.90;999.90;;;;;;;;;;6213893;23;20599;-70
2023/05/03 04:15:16;;;;;;;1999.90;999.90;;;;;;;;;;6213610;23;20733;-70
2023/05/03 04:18:02;;;;;;;1999.90;999.90;;;;;;;;;;6215841;23;20208;-70
2023/05/03 04:20:47;;;;;;;1999.90;999.90;;;;;;;;;;6214492;23;20189;-70
2023/05/03 04:23:31;;;;;;;1999.90;999.90;;;;;;;;;;6215911;23;20170;-69
2023/05/03 04:26:17;;;;;;;1999.90;999.90;;;;;;;;;;6215713;23;20275;-69
2023/05/03 04:29:03;;;;;;;1999.90;999.90;;;;;;;;;;6214978;23;20165;-70
2023/05/03 04:31:50;;;;;;;1999.90;999.90;;;;;;;;;;6215800;23;20169;-70
2023/05/03 04:34:35;;;;;;;1999.90;999.90;;;;;;;;;;6214905;23;20551;-68
2023/05/03 04:37:20;;;;;;;1999.90;999.90;;;;;;;;;;6214956;23;20169;-67
2023/05/03 04:40:08;;;;;;;1999.90;999.90;;;;;;;;;;6214669;23;20236;-69
2023/05/03 04:42:53;;;;;;;1999.90;999.90;;;;;;;;;;6215516;23;20262;-67
2023/05/03 04:45:38;;;;;;;1999.90;999.90;;;;;;;;;;6215346;23;20689;-71
2023/05/03 04:48:25;;;;;;;1999.90;999.90;;;;;;;;;;6215183;23;20229;-67
2023/05/03 04:51:09;;;;;;;1999.90;999.90;;;;;;;;;;6215618;23;20177;-70
2023/05/03 04:53:55;;;;;;;1999.90;999.90;;;;;;;;;;6215428;23;20592;-71
2023/05/03 04:56:40;;;;;;;1999.90;999.90;;;;;;;;;;6215313;23;20269;-70
2023/05/03 04:59:25;;;;;;;1999.90;999.90;;;;;;;;;;6214859;23;20194;-67
2023/05/03 05:02:10;;;;;;;1999.90;999.90;;;;;;;;;;6215703;23;20185;-67
2023/05/03 05:04:56;;;;;;;1999.90;999.90;;;;;;;;;;6215172;23;20210;-71
2023/05/03 05:07:41;;;;;;;1999.90;999.90;;;;;;;;;;6222383;23;20196;-71
2023/05/03 05:10:26;;;;;;;1999.90;999.90;;;;;;;;;;6214699;23;20165;-71
2023/05/03 05:13:11;;;;;;;1999.90;999.90;;;;;;;;;;6215039;23;20232;-68
2023/05/03 05:15:56;;;;;;;1999.90;999.90;;;;;;;;;;6214689;23;20677;-70
2023/05/03 05:18:41;;;;;;;1999.90;999.90;;;;;;;;;;6213948;23;20504;-69
2023/05/03 05:21:27;;;;;;;1999.90;999.90;;;;;;;;;;6215180;23;20170;-71
2023/05/03 05:24:12;;;;;;;1999.90;999.90;;;;;;;;;;6214775;23;20172;-70
2023/05/03 05:26:57;;;;;;;1999.90;999.90;;;;;;;;;;6214842;23;20213;-70
2023/05/03 05:29:42;;;;;;;1999.90;999.90;;;;;;;;;;6214351;23;20167;-70
2023/05/03 05:32:27;;;;;;;1999.90;999.90;;;;;;;;;;6215283;23;20172;-70
2023/05/03 05:35:12;;;;;;;1999.90;999.90;;;;;;;;;;6214786;23;20219;-70
2023/05/03 05:37:58;;;;;;;1999.90;999.90;;;;;;;;;;6214612;23;20644;-69
2023/05/03 05:40:43;;;;;;;1999.90;999.90;;;;;;;;;;6214424;23;20192;-70
2023/05/03 05:43:28;;;;;;;1999.90;999.90;;;;;;;;;;6214173;23;20169;-68
2023/05/03 05:46:14;;;;;;;1999.90;999.90;;;;;;;;;;6213607;23;20717;-68
2023/05/03 05:48:59;;;;;;;1999.90;999.90;;;;;;;;;;6214600;23;20249;-70
2023/05/03 05:51:44;;;;;;;1999.90;999.90;;;;;;;;;;6215005;23;20531;-70
2023/05/03 05:54:31;;;;;;;1999.90;999.90;;;;;;;;;;6214468;23;20185;-70
2023/05/03 05:57:16;;;;;;;1999.90;999.90;;;;;;;;;;6214758;23;20500;-70
2023/05/03 06:00:00;;;;;;;1999.90;999.90;;;;;;;;;;6214427;23;20194;-70
2023/05/03 06:02:46;;;;;;;1999.90;999.90;;;;;;;;;;6214743;23;20170;-71
2023/05/03 06:05:31;;;;;;;1999.90;999.90;;;;;;;;;;6214557;23;20201;-71
2023/05/03 06:08:16;;;;;;;1999.90;999.90;;;;;;;;;;6214316;23;20168;-70
2023/05/03 06:11:02;;;;;;;1999.90;999.90;;;;;;;;;;6214675;23;20174;-71
2023/05/03 06:13:47;;;;;;;1999.90;999.90;;;;;;;;;;6214699;23;20168;-71
2023/05/03 06:16:32;;;;;;;1999.90;999.90;;;;;;;;;;6214548;23;20207;-71
2023/05/03 06:19:16;;;;;;;1999.90;999.90;;;;;;;;;;6214135;23;20170;-71
2023/05/03 06:22:02;;;;;;;1999.90;999.90;;;;;;;;;;6214636;23;20211;-71
2023/05/03 06:24:47;;;;;;;1999.90;999.90;;;;;;;;;;6214416;23;20327;-71
2023/05/03 06:27:33;;;;;;;1999.90;999.90;;;;;;;;;;6214661;23;20555;-71
2023/05/03 06:30:18;;;;;;;1999.90;999.90;;;;;;;;;;6214209;23;20205;-71
2023/05/03 06:33:03;;;;;;;1999.90;999.90;;;;;;;;;;6213561;23;20426;-69
2023/05/03 06:35:48;;;;;;;1999.90;999.90;;;;;;;;;;6214146;23;20251;-71
2023/05/03 06:38:32;;;;;;;1999.90;999.90;;;;;;;;;;6213435;23;20625;-69
2023/05/03 06:41:18;;;;;;;1999.90;999.90;;;;;;;;;;6213427;23;20197;-68
2023/05/03 06:44:06;;;;;;;1999.90;999.90;;;;;;;;;;6214360;23;20170;-70
2023/05/03 06:46:50;;;;;;;1999.90;999.90;;;;;;;;;;6214164;23;20165;-71
2023/05/03 06:49:35;;;;;;;1999.90;999.90;;;;;;;;;;6213796;23;20300;-71
2023/05/03 06:52:20;;;;;;;1999.90;999.90;;;;;;;;;;6213362;23;20185;-71
2023/05/03 06:55:06;;;;;;;1999.90;999.90;;;;;;;;;;6213817;23;20205;-71
2023/05/03 06:57:52;;;;;;;1999.90;999.90;;;;;;;;;;6213853;23;20209;-70
2023/05/03 07:00:39;;;;;;;1999.90;999.90;;;;;;;;;;6213823;23;20194;-71
2023/05/03 07:03:24;;;;;;;1999.90;999.90;;;;;;;;;;6213702;23;20217;-70
2023/05/03 07:06:09;;;;;;;1999.90;999.90;;;;;;;;;;6213054;23;20851;-70
2023/05/03 07:08:54;;;;;;;1999.90;999.90;;;;;;;;;;6213178;23;20170;-70
2023/05/03 07:11:43;;;;;;;1999.90;999.90;;;;;;;;;;6212185;23;20240;-70
2023/05/03 07:14:28;;;;;;;1999.90;999.90;;;;;;;;;;6213726;23;20165;-71
2023/05/03 07:17:14;;;;;;;1999.90;999.90;;;;;;;;;;6212664;23;20250;-71
2023/05/03 07:19:59;;;;;;;1999.90;999.90;;;;;;;;;;6212581;23;20401;-70
2023/05/03 07:22:44;;;;;;;1999.90;999.90;;;;;;;;;;6213913;23;20170;-71
2023/05/03 07:25:30;;;;;;;1999.90;999.90;;;;;;;;;;6212240;23;20201;-71
2023/05/03 07:28:16;;;;;;;1999.90;999.90;;;;;;;;;;6213178;23;20213;-71
2023/05/03 07:31:02;;;;;;;1999.90;999.90;;;;;;;;;;6213549;23;20244;-71
2023/05/03 07:33:48;;;;;;;1999.90;999.90;;;;;;;;;;6211566;23;20168;-71
2023/05/03 07:36:33;;;;;;;1999.90;999.90;;;;;;;;;;6211221;23;20209;-70
2023/05/03 07:39:18;;;;;;;1999.90;999.90;;;;;;;;;;6210874;23;20810;-68
2023/05/03 07:42:03;;;;;;;1999.90;999.90;;;;;;;;;;6211719;23;20174;-70
2023/05/03 07:44:48;;;;;;;1999.90;999.90;;;;;;;;;;6211678;23;20681;-71
2023/05/03 07:47:36;;;;;;;1999.90;999.90;;;;;;;;;;6211939;23;20506;-70
2023/05/03 07:50:22;;;;;;;1999.90;999.90;;;;;;;;;;6212583;23;20217;-71
2023/05/03 07:53:08;;;;;;;1999.90;999.90;;;;;;;;;;6211144;23;20379;-70
2023/05/03 07:55:53;;;;;;;1999.90;999.90;;;;;;;;;;6212781;23;20208;-70
2023/05/03 07:58:38;;;;;;;1999.90;999.90;;;;;;;;;;6211691;23;20165;-71
2023/05/03 08:01:23;;;;;;;1999.90;999.90;;;;;;;;;;6213816;23;20190;-71
2023/05/03 08:04:08;;;;;;;1999.90;999.90;;;;;;;;;;6213557;23;20181;-71
2023/05/03 08:06:54;;;;;;;1999.90;999.90;;;;;;;;;;6211805;23;20491;-70
2023/05/03 08:09:39;;;;;;;1999.90;999.90;;;;;;;;;;6212869;23;20253;-70
2023/05/03 08:12:24;;;;;;;1999.90;999.90;;;;;;;;;;6213499;23;20165;-70
2023/05/03 08:15:10;;;;;;;1999.90;999.90;;;;;;;;;;6213547;23;20252;-69
2023/05/03 08:17:54;;;;;;;1999.90;999.90;;;;;;;;;;6213599;23;20626;-72
2023/05/03 08:20:41;;;;;;;1999.90;999.90;;;;;;;;;;6212861;23;20303;-70
2023/05/03 08:23:27;;;;;;;1999.90;999.90;;;;;;;;;;6212777;23;20226;-71
2023/05/03 08:26:13;;;;;;;1999.90;999.90;;;;;;;;;;6212296;23;20201;-70
2023/05/03 08:28:58;;;;;;;1999.90;999.90;;;;;;;;;;6212073;23;20174;-70
2023/05/03 08:31:43;;;;;;;1999.90;999.90;;;;;;;;;;6213078;23;20256;-70
2023/05/03 08:34:28;;;;;;;1999.90;999.90;;;;;;;;;;6213031;23;20170;-70
2023/05/03 08:37:13;;;;;;;1999.90;999.90;;;;;;;;;;6212705;23;20621;-70
2023/05/03 08:40:04;;;;;;;1999.90;999.90;;;;;;;;;;6211879;23;20204;-70
2023/05/03 08:42:49;;;;;;;1999.90;999.90;;;;;;;;;;6213548;23;20169;-70
2023/05/03 08:45:34;;;;;;;1999.90;999.90;;;;;;;;;;6212862;23;20204;-70
2023/05/03 08:48:19;;;;;;;1999.90;999.90;;;;;;;;;;6212834;23;20256;-70
2023/05/03 08:51:04;;;;;;;1999.90;999.90;;;;;;;;;;6211647;23;20403;-70
2023/05/03 08:53:50;;;;;;;1999.90;999.90;;;;;;;;;;6213207;23;20518;-70
2023/05/03 08:56:40;;;;;;;1999.90;999.90;;;;;;;;;;6213187;23;20200;-71
2023/05/03 08:59:27;;;;;;;1999.90;999.90;;;;;;;;;;6213156;23;20560;-70
2023/05/03 09:02:14;;;;;;;1999.90;999.90;;;;;;;;;;6211837;23;20201;-70
2023/05/03 09:04:59;;;;;;;1999.90;999.90;;;;;;;;;;6212992;23;20203;-69
2023/05/03 09:07:59;;;;;;;1999.90;999.90;;;;;;;;;;6212858;23;20509;-70
2023/05/03 09:10:45;;;;;;;1999.90;999.90;;;;;;;;;;6213060;23;20164;-71
2023/05/03 09:13:31;;;;;;;1999.90;999.90;;;;;;;;;;6212892;23;20623;-71
2023/05/03 09:16:22;;;;;;;1999.90;999.90;;;;;;;;;;6212590;23;20550;-70
2023/05/03 09:19:08;;;;;;;1999.90;999.90;;;;;;;;;;6212390;23;20172;-71
2023/05/03 09:22:05;;;;;;;1999.90;999.90;;;;;;;;;;6211562;23;20190;-70
2023/05/03 09:24:51;;;;;;;1999.90;999.90;;;;;;;;;;6211326;23;20370;-69
2023/05/03 09:27:37;;;;;;;1999.90;999.90;;;;;;;;;;6212838;23;20177;-70
2023/05/03 09:30:23;;;;;;;1999.90;999.90;;;;;;;;;;6212727;23;20193;-70
2023/05/03 09:33:09;;;;;;;1999.90;999.90;;;;;;;;;;6212915;23;20244;-70
2023/05/03 09:35:57;;;;;;;1999.90;999.90;;;;;;;;;;6212767;23;20212;-70
2023/05/03 09:38:43;;;;;;;1999.90;999.90;;;;;;;;;;6209723;23;20378;-70
2023/05/03 09:41:28;;;;;;;1999.90;999.90;;;;;;;;;;6212403;23;20195;-71
2023/05/03 09:44:13;;;;;;;1999.90;999.90;;;;;;;;;;6212111;23;20172;-70
2023/05/03 09:47:04;;;;;;;1999.90;999.90;;;;;;;;;;6211608;23;20168;-71
2023/05/03 09:49:49;;;;;;;1999.90;999.90;;;;;;;;;;6211892;23;20213;-70
2023/05/03 09:52:33;;;;;;;1999.90;999.90;;;;;;;;;;6212707;23;20169;-70
2023/05/03 09:55:20;;;;;;;1999.90;999.90;;;;;;;;;;6210188;23;20215;-70
2023/05/03 09:58:06;;;;;;;1999.90;999.90;;;;;;;;;;6210502;23;20169;-71
2023/05/03 10:00:52;;;;;;;1999.90;999.90;;;;;;;;;;6212409;23;20195;-69
2023/05/03 10:03:40;;;;;;;1999.90;999.90;;;;;;;;;;6211064;23;20176;-70
2023/05/03 10:06:26;;;;;;;1999.90;999.90;;;;;;;;;;6211717;23;20262;-70
2023/05/03 10:09:13;;;;;;;1999.90;999.90;;;;;;;;;;6212141;23;20074;-70
2023/05/03 10:11:59;;;;;;;1999.90;999.90;;;;;;;;;;6212937;23;20169;-71
2023/05/03 10:14:45;;;;;;;1999.90;999.90;;;;;;;;;;6212137;23;20543;-71
2023/05/03 10:17:32;;;;;;;1999.90;999.90;;;;;;;;;;6214451;23;20190;-71
2023/05/03 10:20:25;;;;;;;1999.90;999.90;;;;;;;;;;6214288;23;20816;-70
2023/05/03 10:23:10;;;;;;;1999.90;999.90;;;;;;;;;;6212418;23;20169;-70
2023/05/03 10:26:12;;;;;;;1999.90;999.90;;;;;;;;;;6211700;23;20829;-71
2023/05/03 10:28:58;;;;;;;1999.90;999.90;;;;;;;;;;6212408;23;20173;-70
2023/05/03 10:31:44;;;;;;;1999.90;999.90;;;;;;;;;;6212585;23;20209;-69
2023/05/03 10:34:31;;;;;;;1999.90;999.90;;;;;;;;;;6212236;23;20166;-70
2023/05/03 10:37:17;;;;;;;1999.90;999.90;;;;;;;;;;6212296;23;20174;-69
2023/05/03 10:40:06;;;;;;;1999.90;999.90;;;;;;;;;;6211423;23;20636;-71
2023/05/03 10:42:53;;;;;;;1999.90;999.90;;;;;;;;;;6212115;23;20287;-71
2023/05/03 10:45:39;;;;;;;1999.90;999.90;;;;;;;;;;6211695;23;20284;-69
2023/05/03 10:48:24;;;;;;;1999.90;999.90;;;;;;;;;;6211553;23;20169;-69
2023/05/03 10:51:29;;;;;;;1999.90;999.90;;;;;;;;;;6212154;23;20181;-70
2023/05/03 10:54:16;;;;;;;1999.90;999.90;;;;;;;;;;6211538;23;20172;-69
2023/05/03 10:57:02;;;;;;;1999.90;999.90;;;;;;;;;;6210530;23;20522;-71
2023/05/03 10:59:48;;;;;;;1999.90;999.90;;;;;;;;;;6211125;23;20661;-71
2023/05/03 11:02:36;;;;;;;1999.90;999.90;;;;;;;;;;6211097;23;20277;-70
2023/05/03 11:05:22;;;;;;;1999.90;999.90;;;;;;;;;;6211835;23;20249;-72
2023/05/03 11:08:08;;;;;;;1999.90;999.90;;;;;;;;;;6212088;23;20174;-72
2023/05/03 11:10:59;;;;;;;1999.90;999.90;;;;;;;;;;6210752;23;20370;-72
2023/05/03 11:13:44;;;;;;;1999.90;999.90;;;;;;;;;;6211419;23;20165;-72
2023/05/03 11:16:29;;;;;;;1999.90;999.90;;;;;;;;;;6211762;23;20642;-71
2023/05/03 11:19:14;;;;;;;1999.90;999.90;;;;;;;;;;6211487;23;20169;-72
2023/05/03 11:22:00;;;;;;;1999.90;999.90;;;;;;;;;;6211804;23;20313;-71
2023/05/03 11:24:45;;;;;;;1999.90;999.90;;;;;;;;;;6211775;23;20213;-71
2023/05/03 11:27:32;;;;;;;1999.90;999.90;;;;;;;;;;6211639;23;20255;-72
2023/05/03 11:30:17;;;;;;;1999.90;999.90;;;;;;;;;;6211352;23;20244;-71
2023/05/03 11:33:02;;;;;;;1999.90;999.90;;;;;;;;;;6211571;23;20502;-71
2023/05/03 11:35:47;;;;;;;1999.90;999.90;;;;;;;;;;6211464;23;20250;-72
2023/05/03 11:38:32;;;;;;;1999.90;999.90;;;;;;;;;;6211751;23;20174;-71
2023/05/03 11:41:17;;;;;;;1999.90;999.90;;;;;;;;;;6210170;23;20197;-71
2023/05/03 11:44:04;;;;;;;1999.90;999.90;;;;;;;;;;6210741;23;20170;-72
2023/05/03 11:46:49;;;;;;;1999.90;999.90;;;;;;;;;;6211758;23;20185;-72
2023/05/03 11:49:34;;;;;;;1999.90;999.90;;;;;;;;;;6211293;23;20216;-72
2023/05/03 11:52:20;;;;;;;1999.90;999.90;;;;;;;;;;6211674;23;20610;-69
2023/05/03 11:55:07;;;;;;;1999.90;999.90;;;;;;;;;;6213165;23;20201;-72
2023/05/03 11:57:52;;;;;;;1999.90;999.90;;;;;;;;;;6210873;23;20369;-69
2023/05/03 12:00:40;;;;;;;1999.90;999.90;;;;;;;;;;6211878;23;20176;-71
2023/05/03 12:03:25;;;;;;;1999.90;999.90;;;;;;;;;;6211551;23;20169;-71
2023/05/03 12:06:11;;;;;;;1999.90;999.90;;;;;;;;;;6211545;23;20217;-71
2023/05/03 12:08:56;;;;;;;1999.90;999.90;;;;;;;;;;6211461;23;20173;-71
2023/05/03 12:11:41;;;;;;;1999.90;999.90;;;;;;;;;;6211204;23;20162;-71
2023/05/03 12:14:27;;;;;;;1999.90;999.90;;;;;;;;;;6211501;23;20949;-71
2023/05/03 12:17:14;;;;;;;1999.90;999.90;;;;;;;;;;6211914;23;20825;-71
2023/05/03 12:20:13;;;;;;;1999.90;999.90;;;;;;;;;;6211227;23;20625;-71
2023/05/03 12:23:00;;;;;;;1999.90;999.90;;;;;;;;;;6211247;23;20706;-71
2023/05/03 12:25:46;;;;;;;1999.90;999.90;;;;;;;;;;6211097;23;20201;-72
2023/05/03 12:28:30;;;;;;;1999.90;999.90;;;;;;;;;;6209877;23;20233;-71
2023/05/03 12:31:16;;;;;;;1999.90;999.90;;;;;;;;;;6210132;23;20219;-71
2023/05/03 12:34:03;;;;;;;1999.90;999.90;;;;;;;;;;6210673;23;20169;-72
2023/05/03 12:36:48;;;;;;;1999.90;999.90;;;;;;;;;;6214084;23;20204;-71
2023/05/03 12:39:33;;;;;;;1999.90;999.90;;;;;;;;;;6213980;23;20254;-71
2023/05/03 12:42:18;;;;;;;1999.90;999.90;;;;;;;;;;6213900;23;20654;-72
2023/05/03 12:45:03;;;;;;;1999.90;999.90;;;;;;;;;;6214409;23;20217;-68
2023/05/03 12:47:48;;;;;;;1999.90;999.90;;;;;;;;;;6215263;23;20205;-69
2023/05/03 12:50:34;;;;;;;1999.90;999.90;;;;;;;;;;6215669;23;20166;-70
2023/05/03 12:53:19;;;;;;;1999.90;999.90;;;;;;;;;;6215243;23;20165;-69
2023/05/03 12:56:04;;;;;;;1999.90;999.90;;;;;;;;;;6215287;23;20543;-71
2023/05/03 12:58:50;;;;;;;1999.90;999.90;;;;;;;;;;6214997;23;20178;-70
2023/05/03 13:01:35;;;;;;;1999.90;999.90;;;;;;;;;;6215178;23;20229;-70
2023/05/03 13:04:20;;;;;;;1999.90;999.90;;;;;;;;;;6215174;23;20173;-71
2023/05/03 13:07:07;;;;;;;1999.90;999.90;;;;;;;;;;6215335;23;20169;-70
2023/05/03 13:09:52;;;;;;;1999.90;999.90;;;;;;;;;;6214761;23;20213;-70
2023/05/03 13:12:36;;;;;;;1999.90;999.90;;;;;;;;;;6215215;23;20503;-70
2023/05/03 13:15:23;;;;;;;1999.90;999.90;;;;;;;;;;6215114;23;20204;-69
2023/05/03 13:18:08;;;;;;;1999.90;999.90;;;;;;;;;;6214856;23;20165;-70
2023/05/03 13:20:53;;;;;;;1999.90;999.90;;;;;;;;;;6215082;23;20212;-70
2023/05/03 13:23:39;;;;;;;1999.90;999.90;;;;;;;;;;6214931;23;20669;-69
2023/05/03 13:26:24;;;;;;;1999.90;999.90;;;;;;;;;;6214986;23;20201;-69
2023/05/03 13:29:09;;;;;;;1999.90;999.90;;;;;;;;;;6214687;23;20262;-70
2023/05/03 13:31:54;;;;;;;1999.90;999.90;;;;;;;;;;6213260;23;20418;-71
2023/05/03 13:34:39;;;;;;;1999.90;999.90;;;;;;;;;;6214811;23;20534;-70
2023/05/03 13:37:24;;;;;;;1999.90;999.90;;;;;;;;;;6214960;23;20167;-70
2023/05/03 13:40:11;;;;;;;1999.90;999.90;;;;;;;;;;6214656;23;20256;-70
2023/05/03 13:42:57;;;;;;;1999.90;999.90;;;;;;;;;;6214899;23;20193;-70
2023/05/03 13:45:42;;;;;;;1999.90;999.90;;;;;;;;;;6214814;23;20205;-70
2023/05/03 13:48:27;;;;;;;1999.90;999.90;;;;;;;;;;6214168;23;20182;-70
2023/05/03 13:51:12;;;;;;;1999.90;999.90;;;;;;;;;;6214880;23;20501;-70
2023/05/03 13:53:58;;;;;;;1999.90;999.90;;;;;;;;;;6214885;23;20180;-70
2023/05/03 13:56:44;;;;;;;1999.90;999.90;;;;;;;;;;6214848;23;20509;-69
2023/05/03 13:59:29;;;;;;;1999.90;999.90;;;;;;;;;;6214573;23;20165;-70
2023/05/03 14:02:14;;;;;;;1999.90;999.90;;;;;;;;;;6214943;23;20193;-71
2023/05/03 14:04:59;;;;;;;1999.90;999.90;;;;;;;;;;6212566;23;20450;-70
2023/05/03 14:07:44;;;;;;;1999.90;999.90;;;;;;;;;;6212491;23;20224;-69
2023/05/03 14:10:29;;;;;;;1999.90;999.90;;;;;;;;;;6210626;23;20169;-71
2023/05/03 14:13:15;;;;;;;1999.90;999.90;;;;;;;;;;6211538;23;20170;-68
2023/05/03 14:16:00;;;;;;;1999.90;999.90;;;;;;;;;;6211480;23;20248;-71
2023/05/03 14:18:46;;;;;;;1999.90;999.90;;;;;;;;;;6211151;23;20421;-69
2023/05/03 14:21:31;;;;;;;1999.90;999.90;;;;;;;;;;6212487;23;20174;-69
2023/05/03 14:24:16;;;;;;;1999.90;999.90;;;;;;;;;;6211886;23;20174;-70
2023/05/03 14:27:01;;;;;;;1999.90;999.90;;;;;;;;;;6212267;23;20241;-70
2023/05/03 14:29:48;;;;;;;1999.90;999.90;;;;;;;;;;6211839;23;20169;-70
2023/05/03 14:32:33;;;;;;;1999.90;999.90;;;;;;;;;;6212184;23;20726;-70
2023/05/03 14:35:18;;;;;;;1999.90;999.90;;;;;;;;;;6211848;23;20212;-69
2023/05/03 14:38:05;;;;;;;1999.90;999.90;;;;;;;;;;6212064;23;20173;-69
2023/05/03 14:40:52;;;;;;;1999.90;999.90;;;;;;;;;;6212068;23;20653;-70
2023/05/03 14:43:37;;;;;;;1999.90;999.90;;;;;;;;;;6212066;23;20197;-70
2023/05/03 14:46:25;;;;;;;1999.90;999.90;;;;;;;;;;6212359;23;20372;-70
2023/05/03 14:49:10;;;;;;;1999.90;999.90;;;;;;;;;;6213520;23;20467;-72
2023/05/03 14:51:56;;;;;;;1999.90;999.90;;;;;;;;;;6213295;23;20185;-74
2023/05/03 14:54:41;;;;;;;1999.90;999.90;;;;;;;;;;6210758;23;20201;-69
2023/05/03 14:57:26;;;;;;;1999.90;999.90;;;;;;;;;;6212118;23;20169;-70
2023/05/03 15:00:13;;;;;;;1999.90;999.90;;;;;;;;;;6211614;23;20236;-70
2023/05/03 15:02:59;;;;;;;1999.90;999.90;;;;;;;;;;6211763;23;20415;-70
2023/05/03 15:05:45;;;;;;;1999.90;999.90;;;;;;;;;;6212089;23;20216;-71
2023/05/03 15:08:30;;;;;;;1999.90;999.90;;;;;;;;;;6210981;23;20579;-70
2023/05/03 15:11:14;;;;;;;1999.90;999.90;;;;;;;;;;6211498;23;20553;-68
2023/05/03 15:13:59;;;;;;;1999.90;999.90;;;;;;;;;;6211895;23;20161;-72
2023/05/03 15:16:44;;;;;;;1999.90;999.90;;;;;;;;;;6211895;23;20169;-69
2023/05/03 15:19:31;;;;;;;1999.90;999.90;;;;;;;;;;6211625;23;20237;-71
2023/05/03 15:22:17;;;;;;;1999.90;999.90;;;;;;;;;;6211696;23;20284;-70
2023/05/03 15:25:01;;;;;;;1999.90;999.90;;;;;;;;;;6211790;23;20205;-71
2023/05/03 15:27:47;;;;;;;1999.90;999.90;;;;;;;;;;6211781;23;20173;-71
2023/05/03 15:30:32;;;;;;;1999.90;999.90;;;;;;;;;;6211510;23;20517;-72
2023/05/03 15:33:17;;;;;;;1999.90;999.90;;;;;;;;;;6211992;23;20165;-70
2023/05/03 15:36:06;;;;;;;1999.90;999.90;;;;;;;;;;6210627;23;20386;-73
2023/05/03 15:38:52;;;;;;;1999.90;999.90;;;;;;;;;;6211541;23;20256;-70
2023/05/03 15:41:37;;;;;;;1999.90;999.90;;;;;;;;;;6211567;23;20265;-70
2023/05/03 15:44:22;;;;;;;1999.90;999.90;;;;;;;;;;6211567;23;20281;-70
2023/05/03 15:47:07;;;;;;;1999.90;999.90;;;;;;;;;;6211713;23;20641;-71
2023/05/03 15:49:52;;;;;;;1999.90;999.90;;;;;;;;;;6211325;23;20181;-70
2023/05/03 15:52:38;;;;;;;1999.90;999.90;;;;;;;;;;6211612;23;20248;-70
2023/05/03 15:55:23;;;;;;;1999.90;999.90;;;;;;;;;;6210485;23;20375;-71
2023/05/03 15:58:09;;;;;;;1999.90;999.90;;;;;;;;;;6211426;23;20214;-70
2023/05/03 16:00:54;;;;;;;1999.90;999.90;;;;;;;;;;6213812;23;20165;-70
2023/05/03 16:03:39;;;;;;;1999.90;999.90;;;;;;;;;;6213562;23;20687;-71
2023/05/03 16:06:24;;;;;;;1999.90;999.90;;;;;;;;;;6214355;23;20201;-71
2023/05/03 16:09:11;;;;;;;1999.90;999.90;;;;;;;;;;6211380;23;20238;-71
2023/05/03 16:11:56;;;;;;;1999.90;999.90;;;;;;;;;;6212825;23;20240;-71
2023/05/03 16:14:41;;;;;;;1999.90;999.90;;;;;;;;;;6212781;23;20240;-70
2023/05/03 16:17:26;;;;;;;1999.90;999.90;;;;;;;;;;6213411;23;20205;-71
2023/05/03 16:20:11;;;;;;;1999.90;999.90;;;;;;;;;;6214100;23;20208;-70
2023/05/03 16:22:56;;;;;;;1999.90;999.90;;;;;;;;;;6213433;23;20193;-69
2023/05/03 16:25:43;;;;;;;1999.90;999.90;;;;;;;;;;6213299;23;20583;-72
2023/05/03 16:28:27;;;;;;;1999.90;999.90;;;;;;;;;;6213321;23;20196;-70
2023/05/03 16:31:12;;;;;;;1999.90;999.90;;;;;;;;;;6213509;23;20516;-72
2023/05/03 16:33:57;;;;;;;1999.90;999.90;;;;;;;;;;6212554;23;20441;-70
2023/05/03 16:36:44;;;;;;;1999.90;999.90;;;;;;;;;;6213381;23;20188;-71
2023/05/03 16:39:29;;;;;;;1999.90;999.90;;;;;;;;;;6212611;23;20165;-72
2023/05/03 16:42:15;;;;;;;1999.90;999.90;;;;;;;;;;6212999;23;20170;-71
2023/05/03 16:45:00;;;;;;;1999.90;999.90;;;;;;;;;;6213406;23;20204;-70
2023/05/03 16:47:46;;;;;;;1999.90;999.90;;;;;;;;;;6213048;23;20165;-71
2023/05/03 16:50:31;;;;;;;1999.90;999.90;;;;;;;;;;6213112;23;20270;-72
2023/05/03 16:53:16;;;;;;;1999.90;999.90;;;;;;;;;;6213858;23;20188;-71
2023/05/03 16:56:01;;;;;;;1999.90;999.90;;;;;;;;;;6212611;23;20216;-69
2023/05/03 16:58:47;;;;;;;1999.90;999.90;;;;;;;;;;6212964;23;20169;-71
2023/05/03 17:01:32;;;;;;;1999.90;999.90;;;;;;;;;;6212857;23;20502;-71
2023/05/03 17:04:17;;;;;;;1999.90;999.90;;;;;;;;;;6212866;23;20197;-71
2023/05/03 17:07:02;;;;;;;1999.90;999.90;;;;;;;;;;6213167;23;20173;-71
2023/05/03 17:09:47;;;;;;;1999.90;999.90;;;;;;;;;;6212881;23;20213;-71
2023/05/03 17:12:32;;;;;;;1999.90;999.90;;;;;;;;;;6212641;23;20177;-71
2023/05/03 17:15:18;;;;;;;1999.90;999.90;;;;;;;;;;6213112;23;20285;-71
2023/05/03 17:18:04;;;;;;;1999.90;999.90;;;;;;;;;;6211764;23;20368;-71
2023/05/03 17:20:49;;;;;;;1999.90;999.90;;;;;;;;;;6212290;23;20177;-70
2023/05/03 17:23:35;;;;;;;1999.90;999.90;;;;;;;;;;6211972;23;20658;-71
2023/05/03 17:26:20;;;;;;;1999.90;999.90;;;;;;;;;;6212158;23;20204;-73
2023/05/03 17:29:06;;;;;;;1999.90;999.90;;;;;;;;;;6212061;23;20554;-71
2023/05/03 17:31:52;;;;;;;1999.90;999.90;;;;;;;;;;6212132;23;20172;-72
2023/05/03 17:34:37;;;;;;;1999.90;999.90;;;;;;;;;;6212125;23;20204;-71
2023/05/03 17:37:22;;;;;;;1999.90;999.90;;;;;;;;;;6213061;23;20209;-72
2023/05/03 17:40:08;;;;;;;1999.90;999.90;;;;;;;;;;6212588;23;20173;-71
2023/05/03 17:42:53;;;;;;;1999.90;999.90;;;;;;;;;;6213690;23;20193;-72
2023/05/03 17:45:37;;;;;;;1999.90;999.90;;;;;;;;;;6213630;23;20222;-72
2023/05/03 17:48:24;;;;;;;1999.90;999.90;;;;;;;;;;6214345;23;20241;-71
2023/05/03 17:51:11;;;;;;;1999.90;999.90;;;;;;;;;;6214721;23;20169;-71
2023/05/03 17:53:56;;;;;;;1999.90;999.90;;;;;;;;;;6214861;23;20232;-72
2023/05/03 17:56:43;;;;;;;1999.90;999.90;;;;;;;;;;6214615;23;20201;-72
2023/05/03 17:59:28;;;;;;;1999.90;999.90;;;;;;;;;;6214341;23;20197;-70